sensor_id;sensor_type;location;lat;lon;timestamp;P1;durP1;ratioP1;P2;durP2;ratioP2
52434;SDS011;38354;52.892;6.148;2022-07-23T04:00:47;7.63;;;4.30;;
52434;SDS011;38354;52.892;6.148;2022-07-23T04:03:13;5.82;;;3.83;;
52434;SDS011;38354;52.892;6.148;2022-07-23T04:05:39;9.40;;;4.60;;
52434;SDS011;38354;52.892;6.148;2022-07-23T04:08:04;7.63;;;4.05;;
52434;SDS011;38354;52.892;6.148;2022-07-23T04:10:30;7.85;;;4.72;;
52434;SDS011;38354;52.892;6.148;2022-07-23T04:12:56;8.93;;;4.60;;
52434;SDS011;38354;52.892;6.148;2022-07-23T04:15:21;7.00;;;4.40;;
52434;SDS011;38354;52.892;6.148;2022-07-23T04:17:47;9.40;;;5.05;;
52434;SDS011;38354;52.892;6.148;2022-07-23T04:20:12;9.25;;;4.90;;
52434;SDS011;38354;52.892;6.148;2022-07-23T04:22:38;8.20;;;5.05;;
52434;SDS011;38354;52.892;6.148;2022-07-23T04:25:04;8.07;;;5.10;;
52434;SDS011;38354;52.892;6.148;2022-07-23T04:27:30;8.55;;;5.07;;
52434;SDS011;38354;52.892;6.148;2022-07-23T04:29:58;6.63;;;4.30;;
52434;SDS011;38354;52.892;6.148;2022-07-23T04:32:24;7.90;;;4.70;;
52434;SDS011;38354;52.892;6.148;2022-07-23T04:34:49;8.77;;;5.10;;
52434;SDS011;38354;52.892;6.148;2022-07-23T04:37:15;10.35;;;4.80;;
52434;SDS011;38354;52.892;6.148;2022-07-23T04:39:41;9.15;;;5.00;;
52434;SDS011;38354;52.892;6.148;2022-07-23T04:42:06;9.35;;;4.93;;
52434;SDS011;38354;52.892;6.148;2022-07-23T04:44:32;9.68;;;5.93;;
52434;SDS011;38354;52.892;6.148;2022-07-23T04:46:57;9.30;;;5.50;;
52434;SDS011;38354;52.892;6.148;2022-07-23T04:49:23;8.43;;;5.13;;
52434;SDS011;38354;52.892;6.148;2022-07-23T04:51:49;8.48;;;5.30;;
52434;SDS011;38354;52.892;6.148;2022-07-23T04:54:14;8.82;;;5.32;;
52434;SDS011;38354;52.892;6.148;2022-07-23T04:56:40;10.15;;;5.43;;
52434;SDS011;38354;52.892;6.148;2022-07-23T04:59:06;8.68;;;4.63;;
52434;SDS011;38354;52.892;6.148;2022-07-23T05:01:31;9.27;;;5.57;;
52434;SDS011;38354;52.892;6.148;2022-07-23T05:03:57;9.57;;;5.72;;
52434;SDS011;38354;52.892;6.148;2022-07-23T05:06:22;9.10;;;5.00;;
52434;SDS011;38354;52.892;6.148;2022-07-23T05:08:48;13.68;;;5.53;;
52434;SDS011;38354;52.892;6.148;2022-07-23T05:11:14;11.63;;;5.90;;
52434;SDS011;38354;52.892;6.148;2022-07-23T05:13:39;11.52;;;6.38;;
52434;SDS011;38354;52.892;6.148;2022-07-23T05:16:05;12.88;;;6.53;;
52434;SDS011;38354;52.892;6.148;2022-07-23T05:18:31;8.50;;;5.50;;
52434;SDS011;38354;52.892;6.148;2022-07-23T05:20:56;10.95;;;6.45;;
52434;SDS011;38354;52.892;6.148;2022-07-23T05:23:22;10.63;;;6.28;;
52434;SDS011;38354;52.892;6.148;2022-07-23T05:25:48;10.90;;;5.82;;
52434;SDS011;38354;52.892;6.148;2022-07-23T05:28:14;10.55;;;6.13;;
52434;SDS011;38354;52.892;6.148;2022-07-23T05:30:40;8.70;;;5.60;;
52434;SDS011;38354;52.892;6.148;2022-07-23T05:33:06;10.15;;;5.60;;
52434;SDS011;38354;52.892;6.148;2022-07-23T05:35:33;11.23;;;5.63;;
52434;SDS011;38354;52.892;6.148;2022-07-23T05:37:58;10.45;;;5.97;;
52434;SDS011;38354;52.892;6.148;2022-07-23T05:40:24;11.07;;;5.20;;
52434;SDS011;38354;52.892;6.148;2022-07-23T05:42:50;10.40;;;5.15;;
52434;SDS011;38354;52.892;6.148;2022-07-23T05:45:15;7.43;;;4.47;;
52434;SDS011;38354;52.892;6.148;2022-07-23T05:47:45;11.20;;;5.70;;
52434;SDS011;38354;52.892;6.148;2022-07-23T05:50:12;9.05;;;4.85;;
52434;SDS011;38354;52.892;6.148;2022-07-23T05:52:38;12.48;;;5.30;;
52434;SDS011;38354;52.892;6.148;2022-07-23T05:55:05;9.63;;;5.38;;
52434;SDS011;38354;52.892;6.148;2022-07-23T05:57:32;9.07;;;5.40;;
52434;SDS011;38354;52.892;6.148;2022-07-23T05:59:57;12.50;;;4.72;;
52434;SDS011;38354;52.892;6.148;2022-07-23T06:02:23;7.88;;;5.15;;
52434;SDS011;38354;52.892;6.148;2022-07-23T06:04:49;11.32;;;4.72;;
52434;SDS011;38354;52.892;6.148;2022-07-23T06:07:14;7.78;;;4.72;;
52434;SDS011;38354;52.892;6.148;2022-07-23T06:09:40;10.00;;;5.50;;
52434;SDS011;38354;52.892;6.148;2022-07-23T06:12:06;8.18;;;5.30;;
52434;SDS011;38354;52.892;6.148;2022-07-23T06:14:32;9.93;;;5.63;;
52434;SDS011;38354;52.892;6.148;2022-07-23T06:16:57;7.63;;;4.43;;
52434;SDS011;38354;52.892;6.148;2022-07-23T06:19:24;8.98;;;4.32;;
52434;SDS011;38354;52.892;6.148;2022-07-23T06:21:50;6.80;;;3.65;;
52434;SDS011;38354;52.892;6.148;2022-07-23T06:24:15;7.90;;;3.78;;
52434;SDS011;38354;52.892;6.148;2022-07-23T06:26:41;7.55;;;4.00;;
52434;SDS011;38354;52.892;6.148;2022-07-23T06:29:07;6.28;;;3.80;;
52434;SDS011;38354;52.892;6.148;2022-07-23T06:31:33;7.95;;;3.88;;
52434;SDS011;38354;52.892;6.148;2022-07-23T06:33:58;11.23;;;3.63;;
52434;SDS011;38354;52.892;6.148;2022-07-23T06:36:24;8.63;;;3.72;;
52434;SDS011;38354;52.892;6.148;2022-07-23T06:38:50;5.38;;;3.55;;
52434;SDS011;38354;52.892;6.148;2022-07-23T06:41:15;8.73;;;2.90;;
52434;SDS011;38354;52.892;6.148;2022-07-23T06:43:41;8.32;;;3.55;;
52434;SDS011;38354;52.892;6.148;2022-07-23T06:46:06;6.00;;;2.55;;
52434;SDS011;38354;52.892;6.148;2022-07-23T06:48:35;5.30;;;2.10;;
52434;SDS011;38354;52.892;6.148;2022-07-23T06:51:02;3.47;;;2.05;;
52434;SDS011;38354;52.892;6.148;2022-07-23T06:53:28;3.58;;;1.85;;
52434;SDS011;38354;52.892;6.148;2022-07-23T06:55:54;3.85;;;2.25;;
52434;SDS011;38354;52.892;6.148;2022-07-23T06:58:19;7.15;;;2.50;;
52434;SDS011;38354;52.892;6.148;2022-07-23T07:00:45;7.38;;;2.53;;
52434;SDS011;38354;52.892;6.148;2022-07-23T07:03:11;4.70;;;1.75;;
52434;SDS011;38354;52.892;6.148;2022-07-23T07:05:37;2.83;;;1.23;;
52434;SDS011;38354;52.892;6.148;2022-07-23T07:08:04;3.30;;;1.10;;
52434;SDS011;38354;52.892;6.148;2022-07-23T07:10:30;2.70;;;1.05;;
52434;SDS011;38354;52.892;6.148;2022-07-23T07:12:56;3.75;;;1.38;;
52434;SDS011;38354;52.892;6.148;2022-07-23T07:15:22;3.13;;;1.00;;
52434;SDS011;38354;52.892;6.148;2022-07-23T07:17:48;5.05;;;1.10;;
52434;SDS011;38354;52.892;6.148;2022-07-23T07:20:14;2.45;;;0.80;;
52434;SDS011;38354;52.892;6.148;2022-07-23T07:22:39;1.50;;;0.90;;
52434;SDS011;38354;52.892;6.148;2022-07-23T07:25:06;3.47;;;1.27;;
52434;SDS011;38354;52.892;6.148;2022-07-23T07:27:32;7.60;;;1.75;;
52434;SDS011;38354;52.892;6.148;2022-07-23T07:29:57;3.13;;;1.02;;
52434;SDS011;38354;52.892;6.148;2022-07-23T07:32:23;4.35;;;1.00;;
52434;SDS011;38354;52.892;6.148;2022-07-23T07:34:49;2.13;;;0.95;;
52434;SDS011;38354;52.892;6.148;2022-07-23T07:37:15;6.72;;;1.00;;
52434;SDS011;38354;52.892;6.148;2022-07-23T07:39:40;3.30;;;1.00;;
52434;SDS011;38354;52.892;6.148;2022-07-23T07:42:06;4.07;;;0.88;;
52434;SDS011;38354;52.892;6.148;2022-07-23T07:44:31;1.88;;;0.73;;
52434;SDS011;38354;52.892;6.148;2022-07-23T07:46:57;2.00;;;0.90;;
52434;SDS011;38354;52.892;6.148;2022-07-23T07:49:23;2.95;;;0.95;;
52434;SDS011;38354;52.892;6.148;2022-07-23T07:51:49;2.55;;;1.05;;
52434;SDS011;38354;52.892;6.148;2022-07-23T07:54:14;2.85;;;0.90;;
52434;SDS011;38354;52.892;6.148;2022-07-23T07:56:40;8.75;;;1.85;;
52434;SDS011;38354;52.892;6.148;2022-07-23T07:59:06;3.70;;;1.00;;
52434;SDS011;38354;52.892;6.148;2022-07-23T08:01:32;4.30;;;0.80;;
52434;SDS011;38354;52.892;6.148;2022-07-23T08:03:58;2.20;;;0.90;;
52434;SDS011;38354;52.892;6.148;2022-07-23T08:06:23;1.80;;;0.80;;
52434;SDS011;38354;52.892;6.148;2022-07-23T08:08:49;1.50;;;0.70;;
52434;SDS011;38354;52.892;6.148;2022-07-23T08:11:15;1.98;;;0.70;;
52434;SDS011;38354;52.892;6.148;2022-07-23T08:13:41;3.53;;;0.63;;
52434;SDS011;38354;52.892;6.148;2022-07-23T08:16:12;3.55;;;0.80;;
52434;SDS011;38354;52.892;6.148;2022-07-23T08:18:40;1.63;;;0.63;;
52434;SDS011;38354;52.892;6.148;2022-07-23T08:21:05;1.55;;;0.70;;
52434;SDS011;38354;52.892;6.148;2022-07-23T08:23:31;2.00;;;0.60;;
52434;SDS011;38354;52.892;6.148;2022-07-23T08:25:56;2.22;;;0.65;;
52434;SDS011;38354;52.892;6.148;2022-07-23T08:28:24;1.92;;;0.60;;
52434;SDS011;38354;52.892;6.148;2022-07-23T08:30:50;2.45;;;0.77;;
52434;SDS011;38354;52.892;6.148;2022-07-23T08:33:16;1.73;;;0.80;;
52434;SDS011;38354;52.892;6.148;2022-07-23T08:35:44;1.33;;;0.60;;
52434;SDS011;38354;52.892;6.148;2022-07-23T08:38:12;3.70;;;0.77;;
52434;SDS011;38354;52.892;6.148;2022-07-23T08:40:40;1.88;;;0.70;;
52434;SDS011;38354;52.892;6.148;2022-07-23T08:43:22;1.77;;;0.70;;
52434;SDS011;38354;52.892;6.148;2022-07-23T08:45:50;1.88;;;0.70;;
52434;SDS011;38354;52.892;6.148;2022-07-23T08:48:19;2.13;;;0.70;;
52434;SDS011;38354;52.892;6.148;2022-07-23T08:50:54;3.95;;;0.70;;
52434;SDS011;38354;52.892;6.148;2022-07-23T08:53:22;1.23;;;0.70;;
52434;SDS011;38354;52.892;6.148;2022-07-23T08:55:49;1.20;;;0.80;;
52434;SDS011;38354;52.892;6.148;2022-07-23T08:58:16;2.60;;;0.70;;
52434;SDS011;38354;52.892;6.148;2022-07-23T09:00:43;3.33;;;0.93;;
52434;SDS011;38354;52.892;6.148;2022-07-23T09:03:19;2.58;;;0.80;;
52434;SDS011;38354;52.892;6.148;2022-07-23T09:05:46;2.42;;;0.70;;
52434;SDS011;38354;52.892;6.148;2022-07-23T09:08:18;2.67;;;0.80;;
52434;SDS011;38354;52.892;6.148;2022-07-23T09:10:57;2.25;;;0.88;;
52434;SDS011;38354;52.892;6.148;2022-07-23T09:16:00;1.77;;;0.70;;
52434;SDS011;38354;52.892;6.148;2022-07-23T09:18:36;2.67;;;0.73;;
52434;SDS011;38354;52.892;6.148;2022-07-23T09:21:12;1.63;;;0.77;;
52434;SDS011;38354;52.892;6.148;2022-07-23T09:26:20;2.15;;;0.77;;
52434;SDS011;38354;52.892;6.148;2022-07-23T09:31:33;1.35;;;0.80;;
52434;SDS011;38354;52.892;6.148;2022-07-23T09:34:17;1.70;;;0.90;;
52434;SDS011;38354;52.892;6.148;2022-07-23T09:36:47;1.98;;;0.95;;
52434;SDS011;38354;52.892;6.148;2022-07-23T09:39:15;1.42;;;1.00;;
52434;SDS011;38354;52.892;6.148;2022-07-23T09:41:47;1.92;;;0.90;;
52434;SDS011;38354;52.892;6.148;2022-07-23T09:44:17;2.35;;;1.00;;
52434;SDS011;38354;52.892;6.148;2022-07-23T09:46:48;1.95;;;1.02;;
52434;SDS011;38354;52.892;6.148;2022-07-23T09:49:22;3.40;;;1.10;;
52434;SDS011;38354;52.892;6.148;2022-07-23T09:51:55;2.72;;;1.05;;
52434;SDS011;38354;52.892;6.148;2022-07-23T09:57:01;5.55;;;1.40;;
52434;SDS011;38354;52.892;6.148;2022-07-23T09:59:30;3.83;;;1.25;;
52434;SDS011;38354;52.892;6.148;2022-07-23T10:01:58;3.63;;;1.25;;
52434;SDS011;38354;52.892;6.148;2022-07-23T10:04:25;1.77;;;1.27;;
52434;SDS011;38354;52.892;6.148;2022-07-23T10:06:54;4.25;;;1.10;;
52434;SDS011;38354;52.892;6.148;2022-07-23T10:09:26;1.52;;;1.00;;
52434;SDS011;38354;52.892;6.148;2022-07-23T10:12:03;2.30;;;1.08;;
52434;SDS011;38354;52.892;6.148;2022-07-23T10:14:42;2.38;;;1.15;;
52434;SDS011;38354;52.892;6.148;2022-07-23T10:17:08;4.38;;;1.25;;
52434;SDS011;38354;52.892;6.148;2022-07-23T10:19:34;3.03;;;1.23;;
52434;SDS011;38354;52.892;6.148;2022-07-23T10:22:01;2.05;;;1.30;;
52434;SDS011;38354;52.892;6.148;2022-07-23T10:39:48;3.30;;;1.60;;
52434;SDS011;38354;52.892;6.148;2022-07-23T10:42:33;2.20;;;1.40;;
52434;SDS011;38354;52.892;6.148;2022-07-23T10:45:00;3.40;;;1.80;;
52434;SDS011;38354;52.892;6.148;2022-07-23T10:47:27;3.25;;;1.30;;
52434;SDS011;38354;52.892;6.148;2022-07-23T10:50:22;2.65;;;1.20;;
52434;SDS011;38354;52.892;6.148;2022-07-23T10:57:57;2.17;;;1.30;;
52434;SDS011;38354;52.892;6.148;2022-07-23T11:00:24;9.98;;;2.30;;
52434;SDS011;38354;52.892;6.148;2022-07-23T11:02:52;4.22;;;1.55;;
52434;SDS011;38354;52.892;6.148;2022-07-23T11:05:20;3.67;;;1.50;;
52434;SDS011;38354;52.892;6.148;2022-07-23T11:10:35;4.60;;;1.50;;
52434;SDS011;38354;52.892;6.148;2022-07-23T11:31:53;4.80;;;1.85;;
52434;SDS011;38354;52.892;6.148;2022-07-23T11:34:32;4.18;;;1.50;;
52434;SDS011;38354;52.892;6.148;2022-07-23T11:37:01;3.33;;;1.60;;
52434;SDS011;38354;52.892;6.148;2022-07-23T11:39:29;4.25;;;1.77;;
52434;SDS011;38354;52.892;6.148;2022-07-23T11:41:56;4.40;;;1.80;;
52434;SDS011;38354;52.892;6.148;2022-07-23T11:44:26;4.00;;;2.03;;
52434;SDS011;38354;52.892;6.148;2022-07-23T11:46:56;4.20;;;1.67;;
52434;SDS011;38354;52.892;6.148;2022-07-23T11:49:22;4.47;;;1.63;;
52434;SDS011;38354;52.892;6.148;2022-07-23T11:52:05;3.45;;;2.10;;
52434;SDS011;38354;52.892;6.148;2022-07-23T11:54:33;5.70;;;1.98;;
52434;SDS011;38354;52.892;6.148;2022-07-23T11:57:01;3.72;;;1.90;;
52434;SDS011;38354;52.892;6.148;2022-07-23T11:59:32;3.13;;;1.60;;
52434;SDS011;38354;52.892;6.148;2022-07-23T12:02:02;6.38;;;1.75;;
52434;SDS011;38354;52.892;6.148;2022-07-23T12:07:26;2.90;;;1.80;;
52434;SDS011;38354;52.892;6.148;2022-07-23T12:09:52;3.47;;;1.77;;
52434;SDS011;38354;52.892;6.148;2022-07-23T12:12:19;3.60;;;2.17;;
52434;SDS011;38354;52.892;6.148;2022-07-23T12:17:18;3.05;;;1.80;;
52434;SDS011;38354;52.892;6.148;2022-07-23T12:19:44;3.35;;;1.58;;
52434;SDS011;38354;52.892;6.148;2022-07-23T12:22:11;3.53;;;1.65;;
52434;SDS011;38354;52.892;6.148;2022-07-23T12:25:00;3.22;;;1.70;;
52434;SDS011;38354;52.892;6.148;2022-07-23T12:27:29;3.33;;;1.90;;
52434;SDS011;38354;52.892;6.148;2022-07-23T12:29:55;2.92;;;1.60;;
52434;SDS011;38354;52.892;6.148;2022-07-23T12:32:25;3.65;;;1.80;;
52434;SDS011;38354;52.892;6.148;2022-07-23T12:35:06;5.57;;;2.10;;
52434;SDS011;38354;52.892;6.148;2022-07-23T12:37:36;3.67;;;1.92;;
52434;SDS011;38354;52.892;6.148;2022-07-23T12:40:21;4.30;;;1.77;;
52434;SDS011;38354;52.892;6.148;2022-07-23T12:43:05;3.53;;;1.83;;
52434;SDS011;38354;52.892;6.148;2022-07-23T12:45:45;8.07;;;2.10;;
52434;SDS011;38354;52.892;6.148;2022-07-23T12:48:27;3.55;;;1.70;;
52434;SDS011;38354;52.892;6.148;2022-07-23T12:53:24;4.72;;;2.35;;
52434;SDS011;38354;52.892;6.148;2022-07-23T12:56:05;3.50;;;1.80;;
52434;SDS011;38354;52.892;6.148;2022-07-23T12:58:49;4.30;;;1.80;;
52434;SDS011;38354;52.892;6.148;2022-07-23T13:03:54;3.85;;;2.30;;
52434;SDS011;38354;52.892;6.148;2022-07-23T13:06:34;4.85;;;1.58;;
52434;SDS011;38354;52.892;6.148;2022-07-23T13:09:02;4.85;;;1.77;;
52434;SDS011;38354;52.892;6.148;2022-07-23T13:11:30;2.38;;;1.50;;
52434;SDS011;38354;52.892;6.148;2022-07-23T13:13:57;4.72;;;1.92;;
52434;SDS011;38354;52.892;6.148;2022-07-23T13:16:25;4.40;;;1.80;;
52434;SDS011;38354;52.892;6.148;2022-07-23T13:18:51;3.55;;;1.98;;
52434;SDS011;38354;52.892;6.148;2022-07-23T13:21:17;2.75;;;1.70;;
52434;SDS011;38354;52.892;6.148;2022-07-23T13:23:43;4.30;;;1.90;;
52434;SDS011;38354;52.892;6.148;2022-07-23T13:26:09;3.60;;;1.70;;
52434;SDS011;38354;52.892;6.148;2022-07-23T13:28:35;3.38;;;2.00;;
52434;SDS011;38354;52.892;6.148;2022-07-23T13:31:01;3.22;;;1.73;;
52434;SDS011;38354;52.892;6.148;2022-07-23T13:33:27;3.85;;;1.70;;
52434;SDS011;38354;52.892;6.148;2022-07-23T13:35:53;3.67;;;2.08;;
52434;SDS011;38354;52.892;6.148;2022-07-23T13:38:20;4.50;;;1.98;;
52434;SDS011;38354;52.892;6.148;2022-07-23T13:40:48;3.45;;;1.77;;
52434;SDS011;38354;52.892;6.148;2022-07-23T13:43:16;2.88;;;1.90;;
52434;SDS011;38354;52.892;6.148;2022-07-23T13:45:43;3.35;;;2.30;;
52434;SDS011;38354;52.892;6.148;2022-07-23T13:48:10;3.83;;;1.98;;
52434;SDS011;38354;52.892;6.148;2022-07-23T13:53:18;3.20;;;1.63;;
52434;SDS011;38354;52.892;6.148;2022-07-23T13:55:53;3.10;;;2.20;;
52434;SDS011;38354;52.892;6.148;2022-07-23T13:58:19;3.63;;;1.88;;
52434;SDS011;38354;52.892;6.148;2022-07-23T14:00:50;2.95;;;1.52;;
52434;SDS011;38354;52.892;6.148;2022-07-23T14:03:17;3.17;;;2.10;;
52434;SDS011;38354;52.892;6.148;2022-07-23T14:05:53;3.42;;;2.40;;
52434;SDS011;38354;52.892;6.148;2022-07-23T14:08:19;4.45;;;1.88;;
52434;SDS011;38354;52.892;6.148;2022-07-23T14:11:03;3.10;;;1.80;;
52434;SDS011;38354;52.892;6.148;2022-07-23T14:13:32;2.55;;;1.80;;
52434;SDS011;38354;52.892;6.148;2022-07-23T14:16:00;2.85;;;1.45;;
52434;SDS011;38354;52.892;6.148;2022-07-23T14:18:27;3.55;;;2.03;;
52434;SDS011;38354;52.892;6.148;2022-07-23T14:21:02;3.78;;;1.90;;
52434;SDS011;38354;52.892;6.148;2022-07-23T14:29:45;4.75;;;2.17;;
52434;SDS011;38354;52.892;6.148;2022-07-23T14:42:27;3.65;;;1.83;;
52434;SDS011;38354;52.892;6.148;2022-07-23T14:45:28;4.18;;;1.83;;
52434;SDS011;38354;52.892;6.148;2022-07-23T14:48:03;3.38;;;1.80;;
52434;SDS011;38354;52.892;6.148;2022-07-23T14:54:24;4.47;;;2.00;;
52434;SDS011;38354;52.892;6.148;2022-07-23T14:57:13;3.25;;;1.50;;
52434;SDS011;38354;52.892;6.148;2022-07-23T14:59:38;4.80;;;1.80;;
52434;SDS011;38354;52.892;6.148;2022-07-23T15:02:13;2.97;;;1.88;;
52434;SDS011;38354;52.892;6.148;2022-07-23T15:05:03;4.72;;;1.70;;
52434;SDS011;38354;52.892;6.148;2022-07-23T15:10:42;4.43;;;1.70;;
52434;SDS011;38354;52.892;6.148;2022-07-23T15:13:07;2.53;;;1.70;;
52434;SDS011;38354;52.892;6.148;2022-07-23T15:15:37;3.50;;;1.60;;
52434;SDS011;38354;52.892;6.148;2022-07-23T15:20:40;2.85;;;1.70;;
52434;SDS011;38354;52.892;6.148;2022-07-23T15:23:05;2.47;;;1.70;;
52434;SDS011;38354;52.892;6.148;2022-07-23T15:25:32;3.03;;;1.80;;
52434;SDS011;38354;52.892;6.148;2022-07-23T15:27:58;4.10;;;2.00;;
52434;SDS011;38354;52.892;6.148;2022-07-23T15:30:25;4.30;;;1.95;;
52434;SDS011;38354;52.892;6.148;2022-07-23T15:32:52;2.60;;;1.65;;
52434;SDS011;38354;52.892;6.148;2022-07-23T15:35:18;3.53;;;1.70;;
52434;SDS011;38354;52.892;6.148;2022-07-23T15:37:45;2.60;;;1.77;;
52434;SDS011;38354;52.892;6.148;2022-07-23T15:40:11;2.63;;;1.80;;
52434;SDS011;38354;52.892;6.148;2022-07-23T15:42:37;3.65;;;1.88;;
52434;SDS011;38354;52.892;6.148;2022-07-23T15:45:03;3.83;;;1.90;;
52434;SDS011;38354;52.892;6.148;2022-07-23T15:47:30;3.75;;;1.63;;
52434;SDS011;38354;52.892;6.148;2022-07-23T15:49:56;2.30;;;1.52;;
52434;SDS011;38354;52.892;6.148;2022-07-23T15:52:28;2.47;;;1.63;;
52434;SDS011;38354;52.892;6.148;2022-07-23T15:55:06;3.08;;;1.60;;
52434;SDS011;38354;52.892;6.148;2022-07-23T15:58:05;3.92;;;1.80;;
52434;SDS011;38354;52.892;6.148;2022-07-23T16:00:33;3.35;;;1.65;;
52434;SDS011;38354;52.892;6.148;2022-07-23T16:02:59;4.70;;;1.73;;
52434;SDS011;38354;52.892;6.148;2022-07-23T16:05:25;3.90;;;2.10;;
52434;SDS011;38354;52.892;6.148;2022-07-23T16:08:00;3.00;;;1.50;;
52434;SDS011;38354;52.892;6.148;2022-07-23T16:10:28;3.20;;;1.73;;
52434;SDS011;38354;52.892;6.148;2022-07-23T16:12:53;5.65;;;1.65;;
52434;SDS011;38354;52.892;6.148;2022-07-23T16:15:19;5.20;;;1.50;;
52434;SDS011;38354;52.892;6.148;2022-07-23T16:17:45;3.10;;;1.90;;
52434;SDS011;38354;52.892;6.148;2022-07-23T16:20:11;3.83;;;1.45;;
52434;SDS011;38354;52.892;6.148;2022-07-23T16:22:37;4.65;;;1.48;;
52434;SDS011;38354;52.892;6.148;2022-07-23T16:25:04;3.30;;;1.90;;
52434;SDS011;38354;52.892;6.148;2022-07-23T16:27:34;4.13;;;1.67;;
52434;SDS011;38354;52.892;6.148;2022-07-23T16:30:01;2.60;;;1.60;;
52434;SDS011;38354;52.892;6.148;2022-07-23T16:32:27;2.65;;;1.60;;
52434;SDS011;38354;52.892;6.148;2022-07-23T16:34:53;3.03;;;1.98;;
52434;SDS011;38354;52.892;6.148;2022-07-23T16:37:19;3.95;;;2.13;;
52434;SDS011;38354;52.892;6.148;2022-07-23T16:39:44;4.15;;;1.60;;
52434;SDS011;38354;52.892;6.148;2022-07-23T16:42:10;3.80;;;1.88;;
52434;SDS011;38354;52.892;6.148;2022-07-23T16:44:36;3.75;;;1.58;;
52434;SDS011;38354;52.892;6.148;2022-07-23T16:47:01;3.47;;;1.67;;
52434;SDS011;38354;52.892;6.148;2022-07-23T16:49:28;4.53;;;1.70;;
52434;SDS011;38354;52.892;6.148;2022-07-23T16:51:53;3.83;;;1.92;;
52434;SDS011;38354;52.892;6.148;2022-07-23T16:54:19;4.57;;;1.90;;
52434;SDS011;38354;52.892;6.148;2022-07-23T16:56:45;2.95;;;1.90;;
52434;SDS011;38354;52.892;6.148;2022-07-23T16:59:11;3.40;;;1.70;;
52434;SDS011;38354;52.892;6.148;2022-07-23T17:01:37;5.53;;;2.08;;
52434;SDS011;38354;52.892;6.148;2022-07-23T17:04:03;5.15;;;1.70;;
52434;SDS011;38354;52.892;6.148;2022-07-23T17:06:29;4.55;;;1.75;;
52434;SDS011;38354;52.892;6.148;2022-07-23T17:08:55;3.78;;;1.80;;
52434;SDS011;38354;52.892;6.148;2022-07-23T17:11:20;4.30;;;2.15;;
52434;SDS011;38354;52.892;6.148;2022-07-23T17:13:46;3.70;;;1.80;;
52434;SDS011;38354;52.892;6.148;2022-07-23T17:16:12;5.93;;;1.90;;
52434;SDS011;38354;52.892;6.148;2022-07-23T17:18:38;4.03;;;1.92;;
52434;SDS011;38354;52.892;6.148;2022-07-23T17:21:03;5.13;;;1.60;;
52434;SDS011;38354;52.892;6.148;2022-07-23T17:23:29;4.20;;;1.58;;
52434;SDS011;38354;52.892;6.148;2022-07-23T17:25:55;4.05;;;1.70;;
52434;SDS011;38354;52.892;6.148;2022-07-23T17:28:21;5.25;;;1.90;;
52434;SDS011;38354;52.892;6.148;2022-07-23T17:30:46;6.40;;;2.00;;
52434;SDS011;38354;52.892;6.148;2022-07-23T17:33:12;4.70;;;1.67;;
52434;SDS011;38354;52.892;6.148;2022-07-23T17:35:39;4.68;;;1.77;;
52434;SDS011;38354;52.892;6.148;2022-07-23T17:38:04;2.90;;;1.70;;
52434;SDS011;38354;52.892;6.148;2022-07-23T17:40:30;4.35;;;1.70;;
52434;SDS011;38354;52.892;6.148;2022-07-23T17:42:56;2.75;;;1.65;;
52434;SDS011;38354;52.892;6.148;2022-07-23T17:45:22;4.03;;;1.73;;
52434;SDS011;38354;52.892;6.148;2022-07-23T17:47:48;3.30;;;1.70;;
52434;SDS011;38354;52.892;6.148;2022-07-23T17:50:14;5.18;;;1.73;;
52434;SDS011;38354;52.892;6.148;2022-07-23T17:52:44;3.28;;;2.03;;
52434;SDS011;38354;52.892;6.148;2022-07-23T17:55:12;3.20;;;1.67;;
52434;SDS011;38354;52.892;6.148;2022-07-23T17:57:37;6.47;;;1.80;;
52434;SDS011;38354;52.892;6.148;2022-07-23T18:00:05;3.70;;;1.80;;
52434;SDS011;38354;52.892;6.148;2022-07-23T18:02:33;3.70;;;1.77;;
52434;SDS011;38354;52.892;6.148;2022-07-23T18:04:58;4.50;;;2.00;;
52434;SDS011;38354;52.892;6.148;2022-07-23T18:07:24;3.17;;;1.90;;
52434;SDS011;38354;52.892;6.148;2022-07-23T18:09:50;4.25;;;2.53;;
52434;SDS011;38354;52.892;6.148;2022-07-23T18:12:15;5.20;;;2.00;;
52434;SDS011;38354;52.892;6.148;2022-07-23T18:14:41;2.70;;;1.70;;
52434;SDS011;38354;52.892;6.148;2022-07-23T18:17:07;4.18;;;1.88;;
52434;SDS011;38354;52.892;6.148;2022-07-23T18:19:33;5.25;;;1.83;;
52434;SDS011;38354;52.892;6.148;2022-07-23T18:21:58;3.38;;;1.65;;
52434;SDS011;38354;52.892;6.148;2022-07-23T18:24:25;3.60;;;1.98;;
52434;SDS011;38354;52.892;6.148;2022-07-23T18:26:51;3.53;;;1.70;;
52434;SDS011;38354;52.892;6.148;2022-07-23T18:29:17;3.67;;;1.88;;
52434;SDS011;38354;52.892;6.148;2022-07-23T18:31:43;3.42;;;1.63;;
52434;SDS011;38354;52.892;6.148;2022-07-23T18:34:09;4.00;;;1.90;;
52434;SDS011;38354;52.892;6.148;2022-07-23T18:36:34;6.88;;;2.15;;
52434;SDS011;38354;52.892;6.148;2022-07-23T18:39:00;3.55;;;1.70;;
52434;SDS011;38354;52.892;6.148;2022-07-23T18:41:26;2.70;;;1.85;;
52434;SDS011;38354;52.892;6.148;2022-07-23T18:43:52;4.82;;;2.00;;
52434;SDS011;38354;52.892;6.148;2022-07-23T18:46:18;4.63;;;1.60;;
52434;SDS011;38354;52.892;6.148;2022-07-23T18:48:43;7.53;;;1.98;;
52434;SDS011;38354;52.892;6.148;2022-07-23T18:51:09;5.88;;;1.67;;
52434;SDS011;38354;52.892;6.148;2022-07-23T18:53:35;5.22;;;1.65;;
52434;SDS011;38354;52.892;6.148;2022-07-23T18:56:00;5.47;;;2.03;;
52434;SDS011;38354;52.892;6.148;2022-07-23T18:58:26;4.43;;;2.10;;
52434;SDS011;38354;52.892;6.148;2022-07-23T19:00:51;3.85;;;1.75;;
52434;SDS011;38354;52.892;6.148;2022-07-23T19:03:17;2.92;;;1.58;;
52434;SDS011;38354;52.892;6.148;2022-07-23T19:05:43;2.72;;;1.80;;
52434;SDS011;38354;52.892;6.148;2022-07-23T19:08:08;4.00;;;1.70;;
52434;SDS011;38354;52.892;6.148;2022-07-23T19:10:35;4.45;;;2.20;;
52434;SDS011;38354;52.892;6.148;2022-07-23T19:13:02;5.15;;;1.90;;
52434;SDS011;38354;52.892;6.148;2022-07-23T19:15:28;3.95;;;1.90;;
52434;SDS011;38354;52.892;6.148;2022-07-23T19:17:53;4.75;;;2.00;;
52434;SDS011;38354;52.892;6.148;2022-07-23T19:20:19;3.17;;;2.10;;
52434;SDS011;38354;52.892;6.148;2022-07-23T19:22:45;4.50;;;2.25;;
52434;SDS011;38354;52.892;6.148;2022-07-23T19:25:10;3.80;;;2.30;;
52434;SDS011;38354;52.892;6.148;2022-07-23T19:27:36;4.05;;;2.30;;
52434;SDS011;38354;52.892;6.148;2022-07-23T19:30:06;4.63;;;2.08;;
52434;SDS011;38354;52.892;6.148;2022-07-23T19:32:34;5.45;;;2.40;;
52434;SDS011;38354;52.892;6.148;2022-07-23T19:35:00;4.57;;;2.00;;
52434;SDS011;38354;52.892;6.148;2022-07-23T19:37:25;5.40;;;2.17;;
52434;SDS011;38354;52.892;6.148;2022-07-23T19:39:51;4.00;;;1.80;;
52434;SDS011;38354;52.892;6.148;2022-07-23T19:42:17;4.25;;;2.47;;
52434;SDS011;38354;52.892;6.148;2022-07-23T19:44:43;3.38;;;1.75;;
52434;SDS011;38354;52.892;6.148;2022-07-23T19:47:09;2.92;;;1.75;;
52434;SDS011;38354;52.892;6.148;2022-07-23T19:49:34;3.83;;;2.10;;
52434;SDS011;38354;52.892;6.148;2022-07-23T19:52:00;7.10;;;1.98;;
52434;SDS011;38354;52.892;6.148;2022-07-23T19:54:26;2.85;;;1.88;;
52434;SDS011;38354;52.892;6.148;2022-07-23T19:56:52;3.55;;;2.05;;
52434;SDS011;38354;52.892;6.148;2022-07-23T19:59:19;3.92;;;1.90;;
52434;SDS011;38354;52.892;6.148;2022-07-23T20:01:44;3.38;;;2.30;;
52434;SDS011;38354;52.892;6.148;2022-07-23T20:04:10;5.18;;;2.40;;
52434;SDS011;38354;52.892;6.148;2022-07-23T20:06:36;3.58;;;2.50;;
52434;SDS011;38354;52.892;6.148;2022-07-23T20:09:02;3.25;;;2.10;;
52434;SDS011;38354;52.892;6.148;2022-07-23T20:11:29;7.47;;;2.90;;
52434;SDS011;38354;52.892;6.148;2022-07-23T20:13:55;3.33;;;2.20;;
52434;SDS011;38354;52.892;6.148;2022-07-23T20:16:23;4.65;;;2.60;;
52434;SDS011;38354;52.892;6.148;2022-07-23T20:18:50;5.53;;;2.42;;
52434;SDS011;38354;52.892;6.148;2022-07-23T20:21:19;3.63;;;2.40;;
52434;SDS011;38354;52.892;6.148;2022-07-23T20:23:47;5.50;;;2.55;;